createdAt,value
2018-08-11T00:03:01.369Z,10.1
2018-08-11T00:18:01.376Z,10.4
2018-08-11T00:23:01.313Z,10.0
2018-08-11T00:28:01.252Z,9.6
2018-08-11T00:33:01.377Z,8.4
2018-08-11T00:38:01.253Z,7.8
2018-08-11T00:53:01.329Z,8.0
2018-08-11T00:58:01.237Z,8.6
2018-08-11T01:03:01.303Z,8.8
2018-08-11T01:08:01.244Z,8.9
2018-08-11T01:13:01.374Z,9.0
2018-08-11T01:18:01.253Z,9.7
2018-08-11T01:28:01.374Z,10.3
2018-08-11T01:38:01.248Z,10.0
2018-08-11T01:43:01.371Z,9.8
2018-08-11T01:48:01.248Z,10.0
2018-08-11T01:53:01.311Z,9.8
2018-08-11T01:58:01.246Z,10.4
2018-08-11T02:03:01.307Z,10.9
2018-08-11T02:08:01.250Z,11.3
2018-08-11T02:13:01.311Z,11.5
2018-08-11T02:18:01.251Z,11.9
2018-08-11T02:24:01.237Z,11.7
2018-08-11T02:29:01.306Z,11.9
2018-08-11T02:34:01.266Z,11.6
2018-08-11T02:39:01.406Z,11.5
2018-08-11T02:54:01.251Z,12.2
2018-08-11T02:59:01.308Z,12.8
2018-08-11T03:04:01.210Z,13.2
2018-08-11T03:09:01.331Z,13.9
2018-08-11T03:14:01.452Z,14.8
2018-08-11T03:19:01.382Z,15.1
2018-08-11T03:24:01.248Z,16.4
2018-08-11T03:29:06.268Z,17.1
2018-08-11T03:34:01.294Z,17.5
2018-08-11T03:39:01.279Z,17.5
2018-08-11T03:49:01.301Z,16.2
2018-08-11T03:54:01.232Z,14.8
2018-08-11T03:59:01.342Z,13.3
2018-08-11T04:04:01.242Z,12.0
2018-08-11T04:09:01.314Z,10.1
2018-08-11T04:14:01.255Z,7.8
2018-08-11T04:19:01.314Z,6.6
2018-08-11T04:24:01.255Z,4.9
2018-08-11T04:29:01.241Z,3.8
2018-08-11T04:34:01.237Z,3.3
2018-08-11T04:44:01.246Z,3.0
2018-08-11T04:54:01.241Z,2.7
2018-08-11T05:04:01.312Z,2.5
2018-08-11T05:14:01.279Z,2.4
2018-08-11T05:19:06.323Z,2.3
2018-08-11T05:24:06.217Z,2.3
2018-08-11T05:34:06.319Z,2.4
2018-08-11T05:39:01.371Z,2.6
2018-08-11T05:44:01.241Z,2.7
2018-08-11T05:49:01.227Z,2.7
2018-08-11T05:54:01.245Z,2.9
2018-08-11T05:59:01.308Z,3.0
2018-08-11T06:04:01.356Z,3.2
2018-08-11T06:09:01.305Z,3.6
2018-08-11T06:14:01.213Z,4.0
2018-08-11T06:19:01.377Z,4.6
2018-08-11T06:24:01.244Z,5.1
2018-08-11T06:29:01.307Z,5.8
2018-08-11T06:34:01.208Z,6.2
2018-08-11T06:39:01.313Z,6.6
2018-08-11T06:49:01.210Z,7.6
2018-08-11T06:54:01.254Z,8.1
2018-08-11T06:59:01.255Z,9.0
2018-08-11T07:05:01.239Z,9.9
2018-08-11T07:10:01.246Z,10.6
2018-08-11T07:15:01.237Z,11.2
2018-08-11T07:20:01.307Z,11.0
2018-08-11T07:25:01.250Z,10.9
2018-08-11T07:30:01.274Z,10.7
2018-08-11T07:35:01.248Z,10.5
2018-08-11T07:40:01.376Z,10.0
2018-08-11T07:45:01.247Z,10.0
2018-08-11T07:50:01.385Z,9.6
2018-08-11T07:55:01.218Z,9.3
2018-08-11T08:00:01.313Z,9.4
2018-08-11T08:05:01.211Z,9.4
2018-08-11T08:10:01.247Z,9.5
2018-08-11T08:15:01.303Z,9.6
2018-08-11T08:20:01.246Z,9.8
2018-08-11T08:25:01.248Z,9.7
2018-08-11T08:30:01.246Z,9.7
2018-08-11T08:35:01.246Z,9.6
2018-08-11T08:40:01.257Z,9.1
2018-08-11T08:45:01.245Z,8.3
2018-08-11T08:50:01.208Z,7.5
2018-08-11T08:55:01.177Z,6.6
2018-08-11T09:00:01.305Z,5.8
2018-08-11T09:05:01.214Z,5.0
2018-08-11T09:10:01.250Z,4.5
2018-08-11T09:15:01.219Z,3.6
2018-08-11T09:20:01.314Z,2.9
2018-08-11T09:25:01.255Z,2.3
2018-08-11T09:30:01.255Z,2.1
2018-08-11T09:35:01.221Z,1.9
2018-08-11T09:40:01.253Z,2.2
2018-08-11T09:45:01.240Z,2.2
2018-08-11T09:50:01.234Z,2.4
2018-08-11T09:55:01.280Z,2.5
2018-08-11T10:00:06.341Z,2.5
2018-08-11T10:05:01.413Z,2.4
2018-08-11T10:15:01.370Z,2.3
2018-08-11T10:20:01.306Z,2.4
2018-08-11T10:30:01.257Z,2.4
2018-08-11T10:40:01.316Z,2.2
2018-08-11T10:45:01.245Z,2.0
2018-08-11T10:50:01.299Z,2.2
2018-08-11T10:55:01.230Z,2.2
2018-08-11T11:00:01.304Z,2.6
2018-08-11T11:05:01.254Z,2.7
2018-08-11T11:10:01.343Z,2.9
2018-08-11T11:15:01.225Z,2.7
2018-08-11T11:25:01.370Z,2.4
2018-08-11T11:30:01.253Z,2.6
2018-08-11T11:35:01.251Z,2.4
2018-08-11T11:40:06.381Z,2.6
2018-08-11T11:45:06.229Z,2.6
2018-08-11T11:50:01.355Z,2.4
2018-08-11T11:55:01.278Z,2.2
2018-08-11T12:00:01.643Z,2.2
2018-08-11T12:05:01.280Z,2.0
2018-08-11T12:10:01.303Z,2.2
2018-08-11T12:15:01.288Z,2.6
2018-08-11T12:20:01.304Z,3.0
2018-08-11T12:25:01.292Z,3.4
2018-08-11T12:30:01.302Z,3.8
2018-08-11T12:35:01.282Z,4.0
2018-08-11T12:40:01.293Z,4.0
2018-08-11T12:45:01.242Z,4.0
2018-08-11T12:50:01.265Z,3.6
2018-08-11T13:00:01.366Z,3.2
2018-08-11T13:05:01.245Z,3.2
2018-08-11T13:10:01.249Z,3.0
2018-08-11T13:15:01.244Z,3.6
2018-08-11T13:25:01.258Z,4.0
2018-08-11T13:30:01.357Z,4.1
2018-08-11T13:35:01.253Z,4.5
2018-08-11T13:45:01.374Z,4.0
2018-08-11T13:50:01.304Z,3.8
2018-08-11T13:55:01.374Z,3.5
2018-08-11T14:00:01.277Z,3.1
2018-08-11T14:05:01.302Z,2.8
2018-08-11T14:10:01.504Z,2.6
2018-08-11T14:15:01.475Z,2.5
2018-08-11T14:20:01.320Z,2.3
2018-08-11T14:30:01.313Z,2.4
2018-08-11T14:35:01.274Z,2.5
2018-08-11T14:40:01.253Z,2.7
2018-08-11T14:45:01.233Z,3.0
2018-08-11T14:55:01.341Z,3.2
2018-08-11T15:00:01.248Z,3.0
2018-08-11T15:05:01.242Z,3.2
2018-08-11T15:15:01.313Z,3.2
2018-08-11T15:20:01.275Z,2.9
2018-08-11T15:25:01.246Z,3.3
2018-08-11T15:30:01.315Z,3.0
2018-08-11T15:40:01.314Z,2.9
2018-08-11T15:45:01.254Z,3.0
2018-08-11T15:50:01.378Z,2.9
2018-08-11T15:55:01.230Z,3.0
2018-08-11T16:00:01.322Z,3.4
2018-08-11T16:05:01.241Z,3.5
2018-08-11T16:10:01.303Z,3.5
2018-08-11T16:15:01.238Z,3.2
2018-08-11T16:20:06.312Z,3.4
2018-08-11T16:25:06.249Z,3.1
2018-08-11T16:30:06.249Z,3.3
2018-08-11T16:35:06.219Z,3.6
2018-08-11T16:40:01.317Z,3.9
2018-08-11T16:45:01.250Z,3.7
2018-08-11T16:50:01.311Z,3.8
2018-08-11T16:55:01.255Z,4.0
2018-08-11T17:00:01.401Z,3.9
2018-08-11T17:05:01.208Z,4.0
2018-08-11T17:15:01.305Z,3.8
2018-08-11T17:20:01.307Z,3.6
2018-08-11T17:25:01.243Z,3.4
2018-08-11T17:30:01.248Z,3.4
2018-08-11T17:35:01.226Z,3.6
2018-08-11T17:40:01.314Z,3.8
2018-08-11T17:45:01.224Z,3.8
2018-08-11T17:51:01.340Z,4.2
2018-08-11T17:56:01.244Z,4.2
2018-08-11T18:06:01.242Z,4.2
2018-08-11T18:11:01.313Z,4.0
2018-08-11T18:16:01.247Z,3.8
2018-08-11T18:21:01.221Z,3.5
2018-08-11T18:26:01.252Z,3.3
2018-08-11T18:31:01.319Z,3.4
2018-08-11T18:42:01.236Z,3.4
2018-08-11T18:52:01.430Z,3.4
2018-08-11T19:02:01.372Z,3.8
2018-08-11T19:12:01.251Z,3.9
2018-08-11T19:17:01.215Z,4.1
2018-08-11T19:22:01.252Z,4.3
2018-08-11T19:27:01.254Z,4.3
2018-08-11T19:33:01.368Z,4.2
2018-08-11T19:38:01.253Z,4.0
2018-08-11T19:43:01.371Z,4.0
2018-08-11T19:48:01.250Z,3.8
2018-08-11T19:53:01.310Z,3.6
2018-08-11T19:58:01.275Z,3.5
2018-08-11T20:03:01.438Z,3.6
2018-08-11T20:13:11.286Z,3.4
2018-08-11T20:18:01.369Z,3.6
2018-08-11T20:23:06.321Z,4.0
2018-08-11T20:38:01.306Z,4.1
2018-08-11T20:48:01.335Z,3.8
2018-08-11T20:53:01.275Z,3.9
2018-08-11T20:58:01.264Z,3.9
2018-08-11T21:14:01.304Z,4.0
2018-08-11T21:19:01.236Z,4.4
2018-08-11T21:29:01.310Z,4.4
2018-08-11T21:34:01.243Z,4.6
2018-08-11T21:44:01.313Z,4.2
2018-08-11T21:49:01.376Z,3.9
2018-08-11T21:54:01.218Z,4.2
2018-08-11T21:59:01.253Z,3.8
2018-08-11T22:09:01.324Z,3.6
2018-08-11T22:14:01.274Z,3.6
2018-08-11T22:19:01.340Z,3.9
2018-08-11T22:24:01.274Z,4.2
2018-08-11T22:29:01.343Z,4.6
2018-08-11T22:34:01.286Z,4.8
2018-08-11T22:39:01.416Z,5.0
2018-08-11T22:44:01.293Z,5.2
2018-08-11T22:49:01.412Z,5.3
2018-08-11T22:54:01.243Z,5.2
2018-08-11T22:59:01.364Z,5.4
2018-08-11T23:09:01.305Z,5.2
2018-08-11T23:14:01.271Z,5.4
2018-08-11T23:19:01.401Z,5.7
2018-08-11T23:29:01.246Z,5.9
2018-08-11T23:34:01.248Z,6.0
2018-08-11T23:39:01.248Z,6.2
2018-08-11T23:44:01.217Z,5.8
2018-08-11T23:49:01.314Z,5.9
2018-08-11T23:59:01.302Z,6.2
